Latest Weather Observations for Kununurra Airport

IDW60801

Issued at 1:38 am WST Thursday 2 March 2017 (issued every 30 minutes, with the page automatically refreshed every 10 minutes)

About weather observations | Map of weather stations | Latest weather observations for WA | Other Formats
Station Details ID: 002056 Name: KUNUNURRA AERO Lat: -15.78 Lon: 128.71 Height: 44.0 m
Data from the previous 72 hours. | See also: Recent months at Kununurra Airport
Date/Time
WST
Temp
°C
App
Temp
°C
Dew
Point
°C
Rel
Hum
%
Delta-T
°C
Wind Press
QNH
hPa
Press
MSL
hPa
Rain since
9am
mm
Dir  Spd
km/h
Gust
km/h
Spd
kts
Gust
kts
02/01:30am 26.4 32.7 24.8 91 1.1 CALM 0 0 0 0 1007.5 1007.2 0.0
02/01:00am 26.4 32.7 24.8 91 1.1 CALM 0 0 0 0 1007.6 1007.3 0.0
02/12:30am 26.3 32.4 24.5 90 1.2 CALM 0 0 0 0 1007.6 1007.3 0.0
02/12:00am 26.4 31.6 24.2 88 1.5 WNW 4 7 2 4 1007.9 1007.6 0.0
 
Date/Time
WST
Temp
°C
App
Temp
°C
Dew
Point
°C
Rel
Hum
%
Delta-T
°C
Wind Press
QNH
hPa
Press
MSL
hPa
Rain since
9am
mm
Dir  Spd
km/h
Gust
km/h
Spd
kts
Gust
kts
01/11:30pm 26.4 32.5 24.4 89 1.4 CALM 0 0 0 0 1008.1 1007.8 0.0
01/11:00pm 27.3 33.6 24.7 86 1.8 CALM 0 0 0 0 1008.5 1008.2 0.0
01/10:30pm 27.6 33.9 24.8 85 2.0 CALM 0 0 0 0 1008.8 1008.5 0.0
01/10:00pm 28.0 34.3 24.8 83 2.2 CALM 0 0 0 0 1009.0 1008.7 0.0
01/09:30pm 27.6 32.8 24.8 85 2.0 N 6 7 3 4 1009.3 1009.0 0.0
01/09:09pm 27.6 32.4 24.4 83 2.2 N 7 11 4 6 1009.2 1008.9 0.0
01/09:00pm 28.0 32.9 24.4 81 2.5 N 6 9 3 5 1009.2 1008.9 0.0
01/08:51pm 28.1 34.0 24.1 79 2.8 CALM 0 0 0 0 1009.1 1008.8 0.0
01/08:30pm 28.2 32.2 24.4 80 2.6 N 11 13 6 7 1008.9 1008.6 0.0
01/08:06pm 28.6 33.5 24.4 78 2.9 N 6 9 3 5 1008.8 1008.5 0.0
01/08:00pm 28.6 33.9 24.4 78 2.9 N 4 6 2 3 1008.7 1008.4 0.0
01/07:47pm 28.4 33.4 24.8 81 2.5 N 7 9 4 5 1008.5 1008.2 0.0
01/07:30pm 28.7 32.3 24.3 77 3.1 N 13 13 7 7 1008.3 1008.0 0.0
01/07:00pm 28.8 33.3 24.6 78 2.9 N 9 11 5 6 1008.1 1007.8 0.0
01/06:30pm 29.5 33.5 24.4 74 3.6 N 11 13 6 7 1007.7 1007.4 0.0
01/06:00pm 30.4 33.8 24.1 69 4.4 N 13 15 7 8 1007.3 1007.0 0.0
01/05:30pm 31.7 35.5 24.0 63 5.4 NNW 11 13 6 7 1006.9 1006.6 0.0
01/05:00pm 33.2 36.3 23.5 56 6.8 N 13 17 7 9 1006.3 1006.0 0.0
01/04:30pm 34.4 36.7 23.4 52 7.7 NNE 17 24 9 13 1006.2 1005.9 0.0
01/04:00pm 35.9 37.6 20.2 40 10.6 S 11 17 6 9 1005.9 1005.6 0.0
01/03:30pm 35.4 35.9 19.3 38 10.7 S 15 26 8 14 1006.2 1005.9 0.0
01/03:00pm 37.2 37.7 20.1 37 11.5 ESE 17 26 9 14 1005.8 1005.5 0.0
01/02:30pm 37.1 38.1 19.5 35 11.7 SE 13 22 7 12 1005.8 1005.5 0.0
01/02:00pm 37.1 40.9 22.4 42 10.2 E 6 11 3 6 1006.1 1005.8 0.0
01/01:30pm 36.7 39.7 21.3 40 10.5 ENE 7 13 4 7 1006.8 1006.5 0.0
01/01:00pm 36.6 39.8 21.6 41 10.3 E 7 19 4 10 1007.2 1006.9 0.0
01/12:30pm 35.9 37.4 21.3 42 9.9 SE 15 20 8 11 1007.7 1007.4 0.0
01/12:00pm 35.6 38.0 21.5 44 9.6 S 11 17 6 9 1008.2 1007.9 0.0
01/11:30am 34.9 38.0 22.2 47 8.7 ESE 9 17 5 9 1008.6 1008.3 0.0
01/11:00am 35.2 38.7 23.5 50 8.2 SE 11 15 6 8 1009.1 1008.8 0.0
01/10:30am 34.8 38.3 22.8 49 8.3 SE 9 15 5 8 1009.6 1009.3 0.0
01/10:00am 34.3 38.0 23.3 52 7.7 SSE 9 15 5 8 1009.9 1009.6 0.0
01/09:30am 33.5 37.6 21.6 49 8.1 NW 2 7 1 4 1010.3 1010.0 0.0
01/09:00am 33.6 37.6 22.7 53 7.5 NE 6 9 3 5 1010.5 1010.2 0.0
01/08:30am 32.5 36.0 22.9 57 6.6 SE 9 13 5 7 1010.5 1010.2 0.0
01/08:00am 31.9 35.9 23.7 62 5.7 SSE 9 13 5 7 1010.5 1010.2 0.0
01/07:30am 31.4 35.6 23.2 61 5.7 ESE 6 7 3 4 1010.6 1010.3 0.0
01/07:00am 29.9 35.5 25.4 77 3.2 SSE 6 9 3 5 1010.4 1010.1 0.0
01/06:30am 29.1 35.4 24.7 77 3.1 CALM 0 0 0 0 1009.9 1009.6 0.0
01/06:00am 26.6 32.8 24.6 89 1.4 CALM 0 0 0 0 1009.7 1009.4 0.0
01/05:30am 25.8 31.6 24.0 90 1.2 CALM 0 2 0 1 1009.5 1009.2 0.0
01/05:00am 26.2 30.8 24.1 88 1.4 NNW 7 9 4 5 1009.2 1008.9 0.0
01/04:30am 26.7 30.5 24.0 85 1.9 NNW 11 13 6 7 1009.2 1008.9 0.0
01/04:00am 27.3 33.3 24.2 83 2.1 CALM 0 0 0 0 1008.7 1008.4 0.0
01/03:30am 27.1 31.7 23.8 82 2.3 S 6 7 3 4 1008.6 1008.3 0.0
01/03:00am 28.3 32.3 23.7 76 3.2 S 9 13 5 7 1008.7 1008.4 0.0
01/02:48am 28.7 32.1 23.4 73 3.6 SSE 11 20 6 11 1008.8 1008.5 0.0
01/02:30am 28.7 32.5 24.0 76 3.3 SSE 11 15 6 8 1008.9 1008.6 0.0
01/02:25am 28.4 32.1 24.6 80 2.7 SE 13 15 7 8 1008.9 1008.6 0.0
01/02:00am 28.1 34.6 25.1 84 2.1 CALM 0 0 0 0 1008.3 1008.0 0.0
01/01:39am 28.0 34.5 25.0 84 2.1 CALM 0 0 0 0 1008.2 1007.9 0.0
01/01:30am 27.9 34.4 25.1 85 2.0 CALM 0 0 0 0 1008.2 1007.9 0.0
01/01:20am 27.9 34.7 25.5 87 1.7 CALM 0 0 0 0 1008.2 1007.9 0.0
01/01:00am 27.7 34.3 25.3 87 1.7 CALM 0 0 0 0 1008.2 1007.9 0.0
01/12:58am 27.8 34.5 25.4 87 1.7 CALM 0 0 0 0 1008.2 1007.9 0.0
01/12:40am 27.8 34.5 25.4 87 1.7 CALM 0 0 0 0 1008.3 1008.0 0.0
01/12:30am 27.9 34.5 25.3 86 1.8 CALM 0 0 0 0 1008.4 1008.1 0.0
01/12:00am 27.8 33.0 24.8 84 2.1 S 6 6 3 3 1008.8 1008.5 0.0
 
Date/Time
WST
Temp
°C
App
Temp
°C
Dew
Point
°C
Rel
Hum
%
Delta-T
°C
Wind Press
QNH
hPa
Press
MSL
hPa
Rain since
9am
mm
Dir  Spd
km/h
Gust
km/h
Spd
kts
Gust
kts
28/11:30pm 28.0 34.5 25.0 84 2.1 CALM 0 0 0 0 1009.1 1008.8 0.0
28/11:00pm 27.5 32.3 24.4 83 2.2 NNW 7 17 4 9 1009.5 1009.2 0.0
28/10:56pm 27.6 32.8 24.2 82 2.4 WSW 4 17 2 9 1009.5 1009.2 0.0
28/10:38pm 28.1 33.1 24.5 81 2.5 SW 6 7 3 4 1009.3 1009.0 0.0
28/10:30pm 27.8 32.4 24.2 81 2.5 SW 7 9 4 5 1009.2 1008.9 0.0
28/10:00pm 28.1 32.6 23.9 78 2.9 SSW 7 7 4 4 1009.4 1009.1 0.0
28/09:31pm 28.9 32.1 23.1 71 4.0 ESE 11 15 6 8 1009.6 1009.3 0.0
28/09:30pm 28.9 32.3 23.3 72 3.8 ESE 11 15 6 8 1009.7 1009.4 0.0
28/09:18pm 28.1 32.9 24.5 81 2.5 ENE 7 13 4 7 1009.8 1009.5 0.0
28/09:00pm 28.0 34.1 24.4 81 2.5 CALM 0 0 0 0 1009.5 1009.2 0.0
28/08:30pm 28.6 33.8 23.5 74 3.5 SSE 2 7 1 4 1009.0 1008.7 0.0
28/08:00pm 29.1 32.8 23.3 71 4.0 ESE 9 11 5 6 1008.8 1008.5 0.0
28/07:30pm 29.8 33.1 22.5 65 5.0 SE 9 11 5 6 1008.4 1008.1 0.0
28/07:21pm 30.0 33.1 22.2 63 5.3 SE 9 11 5 6 1008.4 1008.1 0.0
28/07:03pm 29.7 33.3 22.4 65 5.0 S 7 9 4 5 1008.1 1007.8 0.0
28/07:00pm 30.6 34.1 22.2 61 5.7 S 7 9 4 5 1008.0 1007.7 0.0
28/06:30pm 31.3 33.8 21.8 57 6.4 S 11 19 6 10 1007.6 1007.3 0.0
28/06:00pm 33.4 36.6 21.2 48 8.3 E 6 7 3 4 1007.1 1006.8 0.0
28/05:30pm 34.3 37.2 21.7 47 8.6 ENE 9 13 5 7 1006.6 1006.3 0.0
28/05:00pm 35.2 36.3 19.6 40 10.4 ENE 13 17 7 9 1006.2 1005.9 0.0
28/04:30pm 35.9 36.1 18.5 36 11.4 E 15 20 8 11 1005.8 1005.5 0.0
28/04:00pm 36.1 35.0 17.7 33 12.0 ESE 20 28 11 15 1006.0 1005.7 0.0
28/03:30pm 36.5 35.4 18.6 35 11.8 E 22 32 12 17 1006.1 1005.8 0.0
28/03:00pm 36.9 38.5 21.5 41 10.6 E 15 28 8 15 1006.1 1005.8 0.0
28/02:30pm 36.9 39.1 21.9 42 10.3 E 13 20 7 11 1006.2 1005.9 0.0
28/02:00pm 36.6 37.9 22.4 44 9.8 NE 19 26 10 14 1006.3 1006.0 0.0
28/01:30pm 36.5 38.3 22.6 44 9.6 E 17 24 9 13 1006.6 1006.3 0.0
28/01:00pm 35.9 38.2 22.8 46 9.1 ENE 15 24 8 13 1006.9 1006.6 0.0
28/12:30pm 36.2 38.6 21.6 42 10.0 E 11 17 6 9 1007.2 1006.9 0.0
28/12:00pm 35.6 38.0 22.9 48 8.8 E 15 24 8 13 1007.8 1007.5 0.0
28/11:30am 35.1 37.8 22.8 49 8.5 ENE 13 22 7 12 1008.2 1007.9 0.0
28/11:00am 35.2 38.5 23.8 51 8.0 NE 13 19 7 10 1008.4 1008.1 0.0
28/10:30am 34.7 37.7 22.7 49 8.3 ENE 11 19 6 10 1008.7 1008.4 0.0
28/10:00am 34.5 37.4 23.2 51 7.9 E 13 17 7 9 1008.9 1008.6 0.0
28/09:30am 33.9 37.3 22.7 52 7.7 ENE 9 15 5 8 1009.2 1008.9 0.0
28/09:00am 33.5 38.8 24.9 60 6.1 E 6 9 3 5 1009.3 1009.0 0.0
28/08:30am 32.7 38.0 25.2 64 5.3 SE 7 11 4 6 1009.5 1009.2 0.0
28/08:00am 31.6 36.6 24.5 66 5.0 SSE 6 7 3 4 1009.6 1009.3 0.0
28/07:30am 30.2 36.4 24.6 72 3.9 CALM 0 4 0 2 1009.6 1009.3 0.0
28/07:00am 28.7 35.2 25.1 81 2.5 CALM 0 0 0 0 1009.6 1009.3 0.0
28/06:30am 27.7 33.7 24.3 82 2.4 CALM 0 0 0 0 1009.6 1009.3 0.0
28/06:00am 26.4 32.9 25.0 92 1.0 CALM 0 0 0 0 1009.5 1009.2 0.0
28/05:30am 25.3 31.3 24.3 94 0.7 CALM 0 0 0 0 1009.4 1009.1 0.0
28/05:00am 25.4 31.2 24.0 92 1.0 CALM 0 0 0 0 1009.2 1008.9 0.0
28/04:30am 25.5 31.5 24.3 93 0.8 CALM 0 0 0 0 1008.9 1008.6 0.0
28/04:00am 25.6 31.6 24.2 92 1.0 CALM 0 0 0 0 1008.7 1008.4 0.0
28/03:30am 26.0 31.8 23.9 88 1.4 CALM 0 0 0 0 1008.4 1008.1 0.0
28/03:00am 26.2 31.3 24.6 91 1.1 S 6 7 3 4 1008.4 1008.1 0.0
28/02:30am 26.2 31.7 24.6 91 1.1 SSE 4 7 2 4 1008.2 1007.9 0.0
28/02:22am 26.1 32.4 24.7 92 1.0 CALM 0 0 0 0 1008.3 1008.0 0.0
28/02:00am 26.3 32.4 24.5 90 1.2 CALM 0 0 0 0 1008.4 1008.1 0.0
28/01:30am 26.2 32.3 24.4 90 1.2 CALM 0 0 0 0 1008.6 1008.3 0.0
28/01:08am 26.0 32.2 24.6 92 1.0 CALM 0 0 0 0 1008.7 1008.4 0.0
28/01:00am 25.8 31.5 24.4 92 1.0 N 2 6 1 3 1008.7 1008.4 0.0
28/12:49am 25.9 30.8 24.3 91 1.1 N 6 7 3 4 1008.8 1008.5 0.0
28/12:30am 26.0 30.8 24.2 90 1.2 NNE 6 9 3 5 1008.8 1008.5 0.0
28/12:25am 26.2 31.9 24.4 90 1.2 N 2 7 1 4 1008.9 1008.6 0.0
28/12:10am 26.2 32.0 24.6 91 1.1 N 2 6 1 3 1009.0 1008.7 0.0
28/12:02am 26.3 32.3 24.3 89 1.4 CALM 0 6 0 3 1009.0 1008.7 0.0
28/12:00am 26.3 31.9 24.3 89 1.4 N 2 6 1 3 1009.0 1008.7 0.0
 
Date/Time
WST
Temp
°C
App
Temp
°C
Dew
Point
°C
Rel
Hum
%
Delta-T
°C
Wind Press
QNH
hPa
Press
MSL
hPa
Rain since
9am
mm
Dir  Spd
km/h
Gust
km/h
Spd
kts
Gust
kts
27/11:42pm 26.6 31.5 24.4 88 1.5 SSE 6 6 3 3 1009.1 1008.8 0.0
27/11:30pm 26.8 31.7 24.3 86 1.7 E 6 7 3 4 1009.1 1008.8 0.0
27/11:00pm 26.7 32.7 24.2 86 1.7 CALM 0 0 0 0 1009.3 1009.0 0.0
27/10:30pm 26.7 31.6 24.4 87 1.6 NE 6 7 3 4 1009.6 1009.3 0.0
27/10:00pm 26.9 31.3 23.8 83 2.1 NW 7 9 4 5 1009.8 1009.5 0.0
27/09:30pm 26.9 31.0 24.0 84 2.0 N 9 11 5 6 1009.9 1009.6 0.0
27/09:00pm 27.8 33.9 24.4 82 2.4 CALM 0 0 0 0 1009.8 1009.5 0.0
27/08:58pm 28.2 34.0 24.0 78 2.9 CALM 0 0 0 0 1009.8 1009.5 0.0
27/08:38pm 28.2 32.4 23.1 74 3.5 SSW 6 7 3 4 1009.4 1009.1 0.0
27/08:30pm 28.1 32.3 23.2 74 3.4 WSW 6 7 3 4 1009.4 1009.1 0.0
27/08:05pm 28.0 31.9 22.9 74 3.5 SW 7 9 4 5 1009.3 1009.0 0.0
27/08:00pm 28.2 31.8 22.4 71 3.9 SSW 7 9 4 5 1009.2 1008.9 0.0
27/07:54pm 28.1 32.0 23.0 74 3.5 SW 7 11 4 6 1009.1 1008.8 0.0
27/07:30pm 28.3 32.4 23.2 74 3.5 S 7 9 4 5 1008.3 1008.0 0.0
27/07:00pm 28.0 32.0 22.7 73 3.6 N 6 9 3 5 1008.1 1007.8 0.0
27/06:30pm 28.3 32.7 23.4 75 3.4 ENE 6 11 3 6 1007.6 1007.3 0.0
27/06:00pm 28.9 31.8 21.7 65 4.8 S 9 15 5 8 1007.1 1006.8 0.0
27/05:30pm 30.7 32.0 22.6 62 5.5 S 20 30 11 16 1007.3 1007.0 0.0
27/05:00pm 34.8 41.1 25.3 57 6.8 SW 2 6 1 3 1006.3 1006.0 0.0
27/04:30pm 35.7 40.4 24.3 51 8.0 SSW 7 11 4 6 1005.9 1005.6 0.0
27/04:00pm 35.8 40.7 24.4 51 8.1 S 6 11 3 6 1005.8 1005.5 0.0
27/03:30pm 35.5 39.7 24.1 51 8.0 SSE 9 11 5 6 1005.8 1005.5 0.0
27/03:00pm 35.2 39.1 24.2 53 7.8 SE 11 15 6 8 1006.2 1005.9 0.0
27/02:30pm 33.7 35.8 23.1 54 7.3 SE 17 22 9 12 1006.7 1006.4 0.0
27/02:00pm 35.4 37.8 23.0 48 8.6 SSE 15 24 8 13 1007.0 1006.7 0.0
27/01:30pm 35.5 37.4 22.8 47 8.8 SSE 17 24 9 13 1007.2 1006.9 0.0
27/01:00pm 35.5 39.7 24.1 51 8.0 SE 9 15 5 8 1007.5 1007.2 0.0
27/12:30pm 35.1 38.1 23.4 50 8.2 SSE 13 20 7 11 1008.0 1007.7 0.0
27/12:00pm 34.8 39.2 25.6 59 6.6 ESE 13 17 7 9 1008.4 1008.1 0.0
27/11:30am 34.1 38.1 23.8 55 7.2 SE 9 13 5 7 1008.8 1008.5 0.0
27/11:00am 33.8 38.7 24.7 59 6.4 E 7 9 4 5 1009.3 1009.0 0.0
27/10:30am 32.7 37.2 23.9 60 6.1 SSW 7 17 4 9 1009.7 1009.4 0.0
27/10:00am 32.2 36.7 23.7 61 5.9 WNW 6 11 3 6 1010.0 1009.7 0.0
27/09:30am 31.4 36.5 24.0 65 5.2 NNE 4 9 2 5 1010.4 1010.1 0.0
27/09:00am 30.0 34.5 23.7 69 4.4 NW 6 9 3 5 1010.7 1010.4 0.2
27/08:30am 29.3 33.8 23.0 69 4.3 SW 4 9 2 5 1011.0 1010.7 0.2
27/08:00am 28.8 34.1 23.7 74 3.5 WSW 2 7 1 4 1011.0 1010.7 0.2
27/07:30am 27.3 31.6 23.3 79 2.7 WNW 6 7 3 4 1010.9 1010.6 0.2
27/07:00am 26.1 31.3 23.6 86 1.7 W 2 7 1 4 1010.8 1010.5 0.2
27/06:30am 25.7 30.1 23.4 87 1.6 N 6 7 3 4 1010.7 1010.4 0.2
27/06:00am 24.8 29.0 23.4 92 1.0 N 7 9 4 5 1010.3 1010.0 0.2
27/05:30am 24.2 28.3 23.0 93 0.8 NNE 6 9 3 5 1009.7 1009.4 0.2
27/05:00am 24.6 29.9 23.0 91 1.1 CALM 0 0 0 0 1009.5 1009.2 0.2
27/04:30am 24.7 29.4 23.3 92 1.0 SSW 4 7 2 4 1009.3 1009.0 0.2
27/04:00am 24.4 28.5 23.0 92 0.9 SW 6 7 3 4 1009.3 1009.0 0.2
27/03:30am 24.5 29.6 22.6 89 1.3 CALM 0 0 0 0 1009.4 1009.1 0.2
27/03:00am 24.3 28.1 22.4 89 1.3 N 6 7 3 4 1009.4 1009.1 0.2
27/02:30am 24.3 28.0 22.2 88 1.4 N 6 9 3 5 1009.3 1009.0 0.2
27/02:00am 24.2 27.4 22.3 89 1.3 NE 9 13 5 7 1009.4 1009.1 0.2

Other Formats:

Comma delimited format used in spreadsheet applications
http://www.bom.gov.au/fwo/IDW60801/IDW60801.94216.axf

JavaScript Object Notation format (JSON) in row-major order
http://www.bom.gov.au/fwo/IDW60801/IDW60801.94216.json